Time;durP1;ratioP1;P1;durP2;ratioP2;P2;SDS_P1;SDS_P2;PMS_P1;PMS_P2;Temp;Humidity;BMP_temperature;BMP_pressure;BME280_temperature;BME280_humidity;BME280_pressure;Samples;Min_cycle;Max_cycle;Signal;HPM_P1;HPM_P2
2022/01/15 00:02:23;;;;;;;33.88;9.63;;;6.70;99.90;;;;;;6057210;23;20115;-85
2022/01/15 00:05:34;;;;;;;32.28;7.72;;;6.70;99.90;;;;;;6024127;23;20071;-86
2022/01/15 00:12:35;;;;;;;;;;;;;;;;;;;;;
2022/01/15 00:20:05;;;;;;;48.95;9.63;;;6.60;99.90;;;;;;5936849;24;20114;-86
2022/01/15 00:37:06;;;;;;;47.35;11.43;;;6.60;99.90;;;;;;6258102;22;20038;-85
2022/01/15 00:40:10;;;;;;;;;;;;;;;;;;;;;
2022/01/15 00:46:27;;;;;;;40.38;10.05;;;6.60;99.90;;;;;;6147924;23;20075;-85
2022/01/15 00:50:06;;;;;;;35.80;9.43;;;6.60;99.90;;;;;;6136869;23;20301;-84
2022/01/15 00:53:38;;;;;;;47.10;10.70;;;6.60;99.90;;;;;;6094904;23;20108;-84
2022/01/15 00:56:28;;;;;;;37.97;10.00;;;6.50;99.90;;;;;;6210740;22;20032;-83
2022/01/15 00:59:23;;;;;;;12.27;5.78;;;6.60;99.90;;;;;;6175586;23;20458;-84
2022/01/15 01:01:57;;;;;;;15.85;5.18;;;6.60;99.90;;;;;;6179119;23;20059;-84
2022/01/15 01:04:25;;;;;;;6.50;3.45;;;6.50;99.90;;;;;;6153326;23;20599;-84
2022/01/15 01:07:48;;;;;;;5.25;2.78;;;6.50;99.90;;;;;;6179017;23;20044;-84
2022/01/15 01:27:56;;;;;;;10.10;2.95;;;6.40;99.90;;;;;;6064305;23;20873;-86
2022/01/15 01:30:54;;;;;;;11.55;3.33;;;6.40;99.90;;;;;;6040579;23;20625;-84
2022/01/15 01:37:17;;;;;;;6.90;3.58;;;6.50;99.90;;;;;;6083015;23;20092;-84
2022/01/15 01:40:06;;;;;;;;;;;;;;;;;;;;;
2022/01/15 01:42:54;;;;;;;13.55;3.65;;;6.40;99.90;;;;;;6158691;23;20461;-84
2022/01/15 01:45:29;;;;;;;13.98;3.90;;;6.40;99.90;;;;;;6178070;23;20474;-84
2022/01/15 01:48:06;;;;;;;14.27;3.83;;;6.40;99.90;;;;;;6131356;23;20020;-84
2022/01/15 01:51:33;;;;;;;13.45;3.47;;;6.40;99.90;;;;;;6178632;23;20096;-84
2022/01/15 01:56:57;;;;;;;13.32;3.67;;;6.40;99.90;;;;;;6200021;23;20017;-84
2022/01/15 01:59:36;;;;;;;12.38;3.88;;;6.40;99.90;;;;;;6176370;23;20020;-84
2022/01/15 02:02:21;;;;;;;10.75;3.67;;;6.40;99.90;;;;;;6178963;23;20016;-84
2022/01/15 02:05:07;;;;;;;27.17;4.32;;;6.40;99.90;;;;;;6178008;23;20009;-85
2022/01/15 02:07:40;;;;;;;9.85;3.92;;;6.40;99.90;;;;;;6177768;23;20012;-84
2022/01/15 02:10:34;;;;;;;12.70;3.70;;;6.40;99.90;;;;;;6177010;23;20405;-85
2022/01/15 02:13:51;;;;;;;16.13;4.68;;;6.40;99.90;;;;;;6157214;23;20016;-84
2022/01/15 02:27:45;;;;;;;12.43;4.75;;;6.30;99.90;;;;;;6083987;23;20018;-84
2022/01/15 02:30:23;;;;;;;13.15;4.93;;;6.30;99.90;;;;;;6060515;23;20040;-84
2022/01/15 02:32:52;;;;;;;9.23;4.60;;;6.30;99.90;;;;;;6120264;23;20012;-84
2022/01/15 02:35:37;;;;;;;;;;;6.30;99.90;;;;;;6128328;23;20016;-84
2022/01/15 02:38:27;;;;;;;26.70;6.63;;;6.30;99.90;;;;;;6113723;23;20203;-84
2022/01/15 02:43:54;;;;;;;10.05;5.05;;;6.30;99.90;;;;;;6117329;23;20025;-84
2022/01/15 02:49:13;;;;;;;;;;;;;;;;;;;;;
2022/01/15 02:51:39;;;;;;;31.63;5.37;;;6.30;99.90;;;;;;6112357;23;20032;-84
2022/01/15 02:54:23;;;;;;;14.20;4.97;;;6.30;99.90;;;;;;6116092;23;20021;-85
2022/01/15 02:57:04;;;;;;;;;;;;;;;;;;;;;
2022/01/15 02:59:31;;;;;;;11.98;4.60;;;6.20;99.90;;;;;;6108475;23;20346;-84
2022/01/15 03:02:10;;;;;;;;;;;;;;;;;;;;;
2022/01/15 03:05:09;;;;;;;;;;;;;;;;;;;;;
2022/01/15 03:08:47;;;;;;;14.30;5.47;;;6.30;99.90;;;;;;6132745;23;20017;-85
2022/01/15 03:11:17;;;;;;;13.27;5.25;;;6.30;99.90;;;;;;6119048;23;20049;-84
2022/01/15 03:13:55;;;;;;;38.80;5.85;;;6.20;99.90;;;;;;6147725;23;20017;-84
2022/01/15 03:17:15;;;;;;;;;;;;;;;;;;;;;
2022/01/15 03:19:42;;;;;;;20.15;5.72;;;6.20;99.90;;;;;;6177271;23;20017;-84
2022/01/15 03:22:23;;;;;;;14.07;5.70;;;6.30;99.90;;;;;;6151446;23;20102;-84
2022/01/15 03:25:09;;;;;;;27.50;6.50;;;6.30;99.90;;;;;;6152597;23;20404;-84
2022/01/15 03:28:28;;;;;;;20.02;6.30;;;6.20;99.90;;;;;;6195732;23;20234;-85
2022/01/15 03:31:00;;;;;;;14.57;5.30;;;6.30;99.90;;;;;;6192437;23;20021;-84
2022/01/15 03:33:56;;;;;;;18.15;5.57;;;6.20;99.90;;;;;;6166182;23;20043;-85
2022/01/15 03:36:28;;;;;;;14.13;5.03;;;6.20;99.90;;;;;;6132867;23;20044;-84
2022/01/15 03:38:58;;;;;;;13.05;4.88;;;6.20;99.90;;;;;;6153725;23;20012;-84
2022/01/15 03:41:55;;;;;;;28.98;5.22;;;6.20;99.90;;;;;;6106743;23;20070;-85
2022/01/15 03:44:56;;;;;;;13.30;4.93;;;6.20;99.90;;;;;;6176221;23;20032;-84
2022/01/15 03:48:19;;;;;;;;;;;;;;;;;;;;;
2022/01/15 03:51:09;;;;;;;23.55;4.97;;;6.20;99.90;;;;;;6175945;23;20017;-85
2022/01/15 03:53:43;;;;;;;13.25;5.15;;;6.20;99.90;;;;;;6093769;23;20356;-84
2022/01/15 03:56:21;;;;;;;23.15;6.35;;;6.20;99.90;;;;;;6127347;23;20008;-84
2022/01/15 03:59:17;;;;;;;13.48;4.57;;;6.20;99.90;;;;;;6131726;23;20008;-85
2022/01/15 04:01:58;;;;;;;21.15;4.10;;;6.20;99.90;;;;;;6179772;23;20013;-84
2022/01/15 04:10:53;;;;;;;25.38;4.78;;;6.10;99.90;;;;;;6029672;23;20018;-84
2022/01/15 04:14:12;;;;;;;16.95;4.53;;;6.10;99.90;;;;;;6103414;23;20040;-85
2022/01/15 04:17:17;;;;;;;13.98;4.35;;;6.10;99.90;;;;;;6105186;23;20038;-85
2022/01/15 04:23:48;;;;;;;12.20;4.80;;;6.10;99.90;;;;;;6084412;23;20022;-85
2022/01/15 04:26:57;;;;;;;;;;;;;;;;;;;;;
2022/01/15 04:30:02;;;;;;;13.65;4.18;;;6.10;99.90;;;;;;5969267;24;20087;-85
2022/01/15 04:37:34;;;;;;;;;;;;;;;;;;;;;
2022/01/15 04:40:44;;;;;;;18.55;4.70;;;6.10;99.90;;;;;;6111302;23;20089;-85
2022/01/15 04:43:41;;;;;;;15.55;5.05;;;6.00;99.90;;;;;;6173409;23;20019;-85
2022/01/15 04:46:13;;;;;;;12.52;4.60;;;6.10;99.90;;;;;;6152272;23;20534;-85
2022/01/15 04:48:43;;;;;;;9.27;4.47;;;6.10;99.90;;;;;;6127840;23;20074;-85
2022/01/15 04:51:13;;;;;;;11.70;4.32;;;6.10;99.90;;;;;;6151615;23;20024;-85
2022/01/15 04:54:03;;;;;;;10.60;5.18;;;6.10;99.90;;;;;;6151523;23;20017;-85
2022/01/15 04:56:33;;;;;;;15.38;5.85;;;6.10;99.90;;;;;;6127791;23;20059;-85
2022/01/15 04:59:25;;;;;;;;;;;;;;;;;;;;;
2022/01/15 05:02:18;;;;;;;11.00;5.60;;;6.10;99.90;;;;;;6150561;23;20016;-85
2022/01/15 05:04:56;;;;;;;17.90;5.53;;;6.10;99.90;;;;;;6129287;23;20013;-85
2022/01/15 05:08:02;;;;;;;12.73;4.80;;;6.10;99.90;;;;;;6150827;23;20489;-85
2022/01/15 05:10:57;;;;;;;12.43;5.25;;;6.10;99.90;;;;;;6136115;23;20372;-85
2022/01/15 05:16:48;;;;;;;17.42;5.22;;;6.00;99.90;;;;;;6154890;23;20497;-85
2022/01/15 05:19:33;;;;;;;16.08;5.47;;;6.10;99.90;;;;;;6150125;23;20051;-85
2022/01/15 05:22:20;;;;;;;15.93;6.00;;;6.10;99.90;;;;;;6129414;23;20245;-85
2022/01/15 05:25:09;;;;;;;;;;;;;;;;;;;;;
2022/01/15 05:27:56;;;;;;;16.23;5.85;;;6.00;99.90;;;;;;6175765;23;20013;-84
2022/01/15 05:30:30;;;;;;;11.88;5.95;;;6.10;99.90;;;;;;6131560;23;20027;-85
2022/01/15 05:33:40;;;;;;;24.92;5.55;;;6.00;99.90;;;;;;6154698;23;20017;-84
2022/01/15 05:39:58;;;;;;;15.88;6.10;;;6.10;99.90;;;;;;6208773;23;20040;-84
2022/01/15 05:51:30;;;;;;;13.55;5.95;;;6.00;99.90;;;;;;6087450;23;20184;-84
2022/01/15 05:55:11;;;;;;;;;;;;;;;;;;;;;
2022/01/15 06:06:15;;;;;;;32.47;7.28;;;6.00;99.90;;;;;;5961515;24;20029;-84
2022/01/15 06:12:15;;;;;;;24.20;7.28;;;6.00;99.90;;;;;;5885920;23;20019;-85
2022/01/15 06:14:42;;;;;;;28.97;8.07;;;6.00;99.90;;;;;;6023130;22;20016;-85
2022/01/15 06:21:59;;;;;;;;;;;;;;;;;;;;;
2022/01/15 06:24:39;;;;;;;25.15;7.05;;;6.00;99.90;;;;;;6207820;23;20016;-85
2022/01/15 06:27:34;;;;;;;26.35;7.32;;;6.00;99.90;;;;;;6179439;23;20070;-86
2022/01/15 06:34:20;;;;;;;15.10;5.45;;;5.90;99.90;;;;;;6195213;23;20017;-85
2022/01/15 06:36:50;;;;;;;21.92;5.30;;;5.90;99.90;;;;;;6193522;23;20027;-85
2022/01/15 06:39:30;;;;;;;20.23;5.40;;;5.90;99.90;;;;;;6197088;23;20012;-85
2022/01/15 06:42:17;;;;;;;24.05;5.93;;;5.90;99.90;;;;;;6193409;23;20012;-85
2022/01/15 06:45:28;;;;;;;27.80;6.10;;;5.80;99.90;;;;;;6211951;23;20494;-86
2022/01/15 06:48:29;;;;;;;16.00;5.45;;;5.90;99.90;;;;;;6097120;23;20120;-85
2022/01/15 06:51:27;;;;;;;23.55;5.80;;;5.80;99.90;;;;;;6074436;23;20009;-85
2022/01/15 06:53:53;;;;;;;20.25;6.03;;;5.80;99.90;;;;;;6163803;23;20012;-85
2022/01/15 06:56:28;;;;;;;20.98;5.40;;;5.80;99.90;;;;;;6187818;23;20019;-85
2022/01/15 07:02:40;;;;;;;21.23;5.75;;;5.80;99.90;;;;;;6169060;23;20016;-85
2022/01/15 07:05:21;;;;;;;29.57;5.70;;;5.80;99.90;;;;;;6184189;22;20426;-85
2022/01/15 07:08:13;;;;;;;21.88;5.88;;;5.80;99.90;;;;;;6191267;23;20305;-85
2022/01/15 07:11:33;;;;;;;16.50;5.47;;;5.80;99.90;;;;;;6190943;23;20143;-85
2022/01/15 07:14:09;;;;;;;18.00;5.63;;;5.70;99.90;;;;;;6186544;23;20015;-85
2022/01/15 07:17:31;;;;;;;16.55;5.40;;;5.70;99.90;;;;;;6204595;23;20052;-85
2022/01/15 07:20:08;;;;;;;16.42;5.13;;;5.70;99.90;;;;;;6070844;23;20119;-86
2022/01/15 07:22:59;;;;;;;16.48;5.07;;;5.70;99.90;;;;;;6179371;23;20021;-85
2022/01/15 07:25:26;;;;;;;26.23;5.95;;;5.70;99.90;;;;;;6155301;23;20016;-85
2022/01/15 07:28:18;;;;;;;26.65;5.07;;;5.70;99.90;;;;;;6152072;23;20021;-85
2022/01/15 07:49:40;;;;;;;34.50;10.23;;;5.60;99.90;;;;;;6237954;22;20020;-85
2022/01/15 07:55:47;;;;;;;30.92;10.90;;;5.70;99.90;;;;;;6207686;23;20020;-86
2022/01/15 07:58:13;;;;;;;27.45;11.23;;;5.60;99.90;;;;;;6185171;23;20035;-85
2022/01/15 08:00:43;;;;;;;31.42;10.57;;;5.60;99.90;;;;;;6209531;23;20031;-85
2022/01/15 08:06:33;;;;;;;;;;;5.60;99.90;;;;;;6190181;23;20099;-85
2022/01/15 08:13:13;;;;;;;27.40;10.57;;;5.60;99.90;;;;;;6232579;23;20031;-85
2022/01/15 08:15:45;;;;;;;32.15;10.77;;;5.60;99.90;;;;;;6179075;23;20008;-84
2022/01/15 08:18:45;;;;;;;28.48;9.93;;;5.60;99.90;;;;;;6156268;23;20096;-85
2022/01/15 08:21:18;;;;;;;29.88;11.23;;;5.60;99.90;;;;;;6175064;23;20019;-85
2022/01/15 08:26:40;;;;;;;40.72;13.15;;;5.60;99.90;;;;;;6232106;22;20016;-84
2022/01/15 08:29:31;;;;;;;39.17;12.50;;;5.70;99.90;;;;;;6205563;23;20073;-85
2022/01/15 08:32:42;;;;;;;37.80;13.07;;;5.70;99.90;;;;;;6172040;23;20016;-85
2022/01/15 08:35:19;;;;;;;39.30;11.75;;;5.70;99.90;;;;;;6052773;23;20018;-84
2022/01/15 08:37:50;;;;;;;41.80;13.57;;;5.70;99.90;;;;;;6087901;23;20353;-84
2022/01/15 08:40:20;;;;;;;;;;;5.70;99.90;;;;;;6093554;23;20016;-85
2022/01/15 08:42:56;;;;;;;44.03;13.43;;;5.70;99.90;;;;;;6115152;23;19952;-84
2022/01/15 08:45:51;;;;;;;42.13;13.43;;;5.70;99.90;;;;;;6094786;23;20417;-85
2022/01/15 08:48:43;;;;;;;35.70;11.55;;;5.70;99.90;;;;;;6095659;23;20088;-84
2022/01/15 08:56:08;;;;;;;38.78;12.48;;;5.70;99.90;;;;;;6055410;23;20435;-85
2022/01/15 08:59:30;;;;;;;;;;;;;;;;;;;;;
2022/01/15 09:02:27;;;;;;;26.05;10.02;;;5.80;99.90;;;;;;5966964;24;20020;-83
2022/01/15 09:09:21;;;;;;;20.08;8.13;;;5.70;99.90;;;;;;5916781;24;20028;-85
2022/01/15 09:12:22;;;;;;;18.90;8.52;;;5.80;99.90;;;;;;5914853;23;20019;-84
2022/01/15 09:15:04;;;;;;;18.73;8.10;;;5.70;99.90;;;;;;6028991;23;20070;-85
2022/01/15 09:17:36;;;;;;;23.75;8.52;;;5.70;99.90;;;;;;6028800;23;20018;-84
2022/01/15 09:20:10;;;;;;;21.65;9.30;;;5.80;99.90;;;;;;6160547;22;20013;-86
2022/01/15 09:22:50;;;;;;;28.23;9.85;;;5.70;99.90;;;;;;6192736;22;20030;-86
2022/01/15 09:25:50;;;;;;;25.40;9.82;;;5.70;99.90;;;;;;6206411;23;20016;-87
2022/01/15 09:31:01;;;;;;;28.17;10.30;;;5.70;99.90;;;;;;6207184;23;20016;-87
2022/01/15 09:37:00;;;;;;;29.98;11.23;;;5.70;99.90;;;;;;6230724;22;20889;-87
2022/01/15 09:39:29;;;;;;;33.33;11.13;;;5.80;99.90;;;;;;6158076;23;20043;-86
2022/01/15 09:42:26;;;;;;;28.73;10.70;;;5.70;99.90;;;;;;6179016;23;20056;-85
2022/01/15 09:46:55;;;;;;;32.65;10.95;;;5.80;99.90;;;;;;6138765;22;20019;-85
2022/01/15 09:49:11;;;;;;;24.52;10.38;;;5.80;99.90;;;;;;6142108;22;20023;-85
2022/01/15 09:52:11;;;;;;;28.42;10.25;;;5.80;99.90;;;;;;6208319;22;20008;-85
2022/01/15 09:54:38;;;;;;;27.40;11.15;;;5.80;99.90;;;;;;6215962;22;20020;-87
2022/01/15 09:57:07;;;;;;;29.15;10.82;;;5.80;99.90;;;;;;6238543;22;20008;-85
2022/01/15 09:59:34;;;;;;;28.20;11.35;;;5.80;99.90;;;;;;6236921;22;20095;-85
2022/01/15 10:02:02;;;;;;;25.27;11.05;;;5.70;99.90;;;;;;6262840;22;20061;-85
2022/01/15 10:04:32;;;;;;;29.00;10.77;;;5.70;99.90;;;;;;6261397;22;20464;-85
2022/01/15 10:07:22;;;;;;;34.28;11.65;;;5.70;99.90;;;;;;6236630;22;20118;-85
2022/01/15 10:09:50;;;;;;;26.77;11.93;;;5.70;99.90;;;;;;6267290;22;20015;-86
2022/01/15 10:12:33;;;;;;;27.52;12.13;;;5.80;99.90;;;;;;6274088;22;20043;-86
2022/01/15 10:15:54;;;;;;;;;;;;;;;;;;;;;
2022/01/15 10:22:37;;;;;;;23.52;12.70;;;5.70;99.90;;;;;;6203468;23;20008;-85
2022/01/15 10:25:21;;;;;;;24.58;12.00;;;5.70;99.90;;;;;;6199755;23;20020;-86
2022/01/15 10:27:55;;;;;;;24.10;13.38;;;5.70;99.90;;;;;;6195398;23;20284;-85
2022/01/15 10:30:27;;;;;;;23.77;12.90;;;5.70;99.90;;;;;;6185264;23;20099;-85
2022/01/15 10:33:05;;;;;;;23.58;12.95;;;5.70;99.90;;;;;;6177870;23;20021;-86
2022/01/15 10:35:36;;;;;;;28.35;13.82;;;5.70;99.90;;;;;;6173773;23;20016;-85
2022/01/15 10:38:16;;;;;;;23.63;12.43;;;5.70;99.90;;;;;;6151825;23;20016;-85
2022/01/15 10:40:55;;;;;;;27.67;14.02;;;5.70;99.90;;;;;;6172560;23;20668;-86
2022/01/15 10:43:52;;;;;;;25.85;14.00;;;5.70;99.90;;;;;;6171889;23;20021;-85
2022/01/15 10:46:32;;;;;;;26.20;14.55;;;5.70;99.90;;;;;;6214402;22;20550;-84
2022/01/15 10:49:49;;;;;;;26.63;15.60;;;5.70;99.90;;;;;;6233558;22;20019;-85
2022/01/15 10:52:23;;;;;;;31.85;16.85;;;5.70;99.90;;;;;;6231857;22;20015;-85
2022/01/15 10:55:02;;;;;;;32.38;16.67;;;5.60;99.90;;;;;;6236319;22;20012;-85
2022/01/15 10:57:38;;;;;;;29.98;15.77;;;5.60;99.90;;;;;;6237620;22;20475;-85
2022/01/15 11:00:15;;;;;;;31.52;16.50;;;5.60;99.90;;;;;;6266547;22;20014;-85
2022/01/15 11:02:47;;;;;;;31.30;16.33;;;5.60;99.90;;;;;;6246885;22;20022;-86
2022/01/15 11:05:22;;;;;;;27.40;15.27;;;5.60;99.90;;;;;;6243816;22;20020;-85
2022/01/15 11:07:53;;;;;;;27.63;15.48;;;5.60;99.90;;;;;;6240878;22;20137;-87
2022/01/15 11:10:19;;;;;;;35.35;16.48;;;5.60;99.90;;;;;;6262899;22;20388;-85
2022/01/15 11:12:48;;;;;;;35.75;17.30;;;5.60;99.90;;;;;;6238928;22;20102;-86
2022/01/15 11:15:17;;;;;;;35.78;17.60;;;5.60;99.90;;;;;;6263948;22;20047;-86
2022/01/15 11:17:46;;;;;;;34.33;18.25;;;5.50;99.90;;;;;;6291312;22;20444;-86
2022/01/15 11:20:22;;;;;;;34.78;18.65;;;5.50;99.90;;;;;;6264443;22;20019;-85
2022/01/15 11:22:49;;;;;;;40.70;18.42;;;5.50;99.90;;;;;;6239642;22;20020;-86
2022/01/15 11:25:17;;;;;;;44.03;19.60;;;5.50;99.90;;;;;;6236266;22;20095;-86
2022/01/15 11:27:44;;;;;;;43.88;19.73;;;5.50;99.90;;;;;;6233586;22;20043;-87
2022/01/15 11:30:12;;;;;;;40.60;19.50;;;5.50;99.90;;;;;;6259858;22;20238;-87
2022/01/15 11:32:42;;;;;;;36.83;18.25;;;5.50;99.90;;;;;;6260393;22;20343;-87
2022/01/15 11:35:09;;;;;;;41.83;19.52;;;5.50;99.90;;;;;;6234951;22;20016;-88
2022/01/15 11:37:46;;;;;;;42.58;19.35;;;5.50;99.90;;;;;;6263443;22;20046;-87
2022/01/15 11:40:34;;;;;;;36.28;18.85;;;5.40;99.90;;;;;;6260810;22;20022;-87
2022/01/15 11:43:25;;;;;;;43.65;19.05;;;5.50;99.90;;;;;;6237907;22;20042;-87
2022/01/15 11:45:53;;;;;;;41.10;19.75;;;5.40;99.90;;;;;;6236937;22;20011;-86
2022/01/15 11:48:30;;;;;;;46.83;20.17;;;5.40;99.90;;;;;;6237329;22;20011;-86
2022/01/15 11:51:18;;;;;;;40.92;19.27;;;5.40;99.90;;;;;;6238092;22;20016;-87
2022/01/15 11:53:47;;;;;;;43.20;19.50;;;5.40;99.90;;;;;;6238659;22;20047;-86
2022/01/15 11:56:18;;;;;;;36.50;17.92;;;5.40;99.90;;;;;;6237016;22;20042;-87
2022/01/15 11:59:30;;;;;;;41.83;19.30;;;5.40;99.90;;;;;;6264709;22;20038;-86
2022/01/15 12:02:01;;;;;;;46.33;18.90;;;5.40;99.90;;;;;;6237999;22;20022;-87
2022/01/15 12:04:38;;;;;;;40.42;19.70;;;5.40;99.90;;;;;;6261924;22;20098;-87
2022/01/15 12:07:06;;;;;;;38.10;19.35;;;5.40;99.90;;;;;;6235389;22;20019;-86
2022/01/15 12:10:38;;;;;;;39.55;17.98;;;5.40;99.90;;;;;;6237204;22;20069;-87
2022/01/15 12:16:36;;;;;;;42.08;18.58;;;5.40;99.90;;;;;;6241186;22;20062;-86
2022/01/15 12:19:14;;;;;;;40.00;18.02;;;5.50;99.90;;;;;;6235195;22;20015;-86
2022/01/15 12:21:54;;;;;;;44.70;20.95;;;5.40;99.90;;;;;;6257288;22;20218;-87
2022/01/15 12:24:39;;;;;;;40.72;17.83;;;5.50;99.90;;;;;;6238427;22;20031;-86
2022/01/15 12:27:10;;;;;;;38.67;18.42;;;5.50;99.90;;;;;;6262717;22;20094;-87
2022/01/15 12:29:37;;;;;;;39.00;19.08;;;5.40;99.90;;;;;;6239477;22;20107;-87
2022/01/15 12:32:13;;;;;;;41.10;19.98;;;5.40;99.90;;;;;;6236909;22;20074;-87
2022/01/15 12:34:39;;;;;;;43.15;20.50;;;5.30;99.90;;;;;;6233150;22;20344;-87
2022/01/15 12:37:12;;;;;;;46.65;20.80;;;5.30;99.90;;;;;;6259878;22;20058;-87
2022/01/15 12:39:43;;;;;;;44.67;20.02;;;5.40;99.90;;;;;;6236012;22;20126;-87
2022/01/15 12:42:12;;;;;;;50.85;21.77;;;5.30;99.90;;;;;;6260181;22;20012;-86
2022/01/15 12:44:54;;;;;;;44.08;22.08;;;5.30;99.90;;;;;;6237718;22;20015;-86
2022/01/15 12:47:21;;;;;;;40.97;20.05;;;5.30;99.90;;;;;;6237188;22;20030;-87
2022/01/15 12:49:52;;;;;;;41.83;19.88;;;5.30;99.90;;;;;;6264935;22;20016;-87
2022/01/15 12:52:21;;;;;;;44.22;20.45;;;5.30;99.90;;;;;;6236669;22;20453;-86
2022/01/15 12:54:49;;;;;;;37.95;19.75;;;5.30;99.90;;;;;;6237561;22;20023;-87
2022/01/15 12:57:35;;;;;;;39.80;19.52;;;5.30;99.90;;;;;;6236860;22;20054;-87
2022/01/15 13:00:07;;;;;;;41.55;19.80;;;5.20;99.90;;;;;;6239176;22;20011;-86
2022/01/15 13:02:36;;;;;;;33.15;17.83;;;5.30;99.90;;;;;;6263406;22;20054;-86
2022/01/15 13:10:05;;;;;;;44.47;18.30;;;5.20;99.90;;;;;;6141086;23;20509;-87
2022/01/15 13:16:36;;;;;;;34.97;18.20;;;5.30;99.90;;;;;;6169326;22;20024;-86
2022/01/15 13:19:20;;;;;;;37.28;19.30;;;5.30;99.90;;;;;;6203991;23;20028;-85
2022/01/15 13:22:36;;;;;;;35.25;18.35;;;5.30;99.90;;;;;;6158222;23;20017;-87
2022/01/15 13:28:53;;;;;;;32.00;18.02;;;5.30;99.90;;;;;;6206928;23;20032;-86
2022/01/15 13:31:27;;;;;;;32.70;18.00;;;5.30;99.90;;;;;;6180940;23;20043;-84
2022/01/15 13:34:36;;;;;;;33.30;18.75;;;5.20;99.90;;;;;;6179391;23;20028;-84
2022/01/15 13:37:51;;;;;;;36.72;18.48;;;5.20;99.90;;;;;;6175281;23;20349;-84
2022/01/15 13:41:34;;;;;;;;;;;;;;;;;;;;;
2022/01/15 13:47:47;;;;;;;34.28;19.85;;;5.20;99.90;;;;;;5941772;24;20549;-87
2022/01/15 13:54:14;;;;;;;38.00;19.30;;;5.20;99.90;;;;;;6110555;23;20275;-86
2022/01/15 13:57:23;;;;;;;33.05;18.33;;;5.20;99.90;;;;;;6120336;23;20013;-84
2022/01/15 14:03:29;;;;;;;36.55;19.25;;;5.10;99.90;;;;;;6003089;23;20583;-86
2022/01/15 14:05:57;;;;;;;34.80;19.30;;;5.10;99.90;;;;;;6106808;23;20020;-85
2022/01/15 14:08:33;;;;;;;30.80;18.00;;;5.10;99.90;;;;;;6138474;23;20016;-87
2022/01/15 14:11:17;;;;;;;40.40;19.25;;;5.20;99.90;;;;;;6160010;23;20048;-86
2022/01/15 14:14:16;;;;;;;33.85;18.10;;;5.00;99.90;;;;;;6201006;23;20071;-86
2022/01/15 14:16:42;;;;;;;41.13;19.35;;;5.10;99.90;;;;;;6126228;23;20056;-86
2022/01/15 14:22:43;;;;;;;36.30;19.55;;;5.00;99.90;;;;;;6190263;23;20072;-87
2022/01/15 14:25:28;;;;;;;33.15;18.75;;;5.00;99.90;;;;;;6179376;23;20040;-87
2022/01/15 14:28:07;;;;;;;35.78;19.75;;;5.10;99.90;;;;;;6179069;23;20092;-86
2022/01/15 14:30:43;;;;;;;38.08;20.00;;;5.10;99.90;;;;;;6170853;23;20751;-86
2022/01/15 14:33:15;;;;;;;40.50;18.90;;;5.00;99.90;;;;;;6173576;23;20028;-86
2022/01/15 14:35:44;;;;;;;40.00;20.58;;;5.00;99.90;;;;;;6173726;23;20374;-86
2022/01/15 14:38:27;;;;;;;44.20;21.35;;;5.00;99.90;;;;;;6172578;23;20013;-87
2022/01/15 14:40:53;;;;;;;38.60;20.23;;;5.00;99.90;;;;;;6173137;23;20043;-86
2022/01/15 14:43:23;;;;;;;42.78;20.92;;;5.00;99.90;;;;;;6173798;23;20833;-85
2022/01/15 14:45:49;;;;;;;44.80;21.13;;;5.00;99.90;;;;;;6175615;23;20461;-87
2022/01/15 14:48:19;;;;;;;46.55;23.42;;;5.00;99.90;;;;;;6171303;23;20023;-87
2022/01/15 14:51:23;;;;;;;42.00;22.25;;;5.00;99.90;;;;;;6174433;23;20019;-86
2022/01/15 14:54:01;;;;;;;39.72;20.52;;;4.90;99.90;;;;;;6158872;23;20540;-86
2022/01/15 14:57:35;;;;;;;49.88;22.38;;;5.00;99.90;;;;;;6172548;23;20019;-86
2022/01/15 15:00:14;;;;;;;42.80;21.75;;;4.90;99.90;;;;;;6154022;23;20017;-87
2022/01/15 15:03:08;;;;;;;45.63;22.35;;;4.90;99.90;;;;;;6173240;23;20027;-87
2022/01/15 15:05:34;;;;;;;47.60;22.80;;;4.90;99.90;;;;;;6175396;23;20063;-85
2022/01/15 15:08:10;;;;;;;44.30;23.02;;;4.90;99.90;;;;;;6171598;23;20412;-87
2022/01/15 15:10:36;;;;;;;47.08;23.27;;;5.00;99.90;;;;;;6198905;23;20022;-87
2022/01/15 15:13:07;;;;;;;46.72;22.88;;;4.80;99.90;;;;;;6174439;23;20106;-87
2022/01/15 15:15:33;;;;;;;42.08;21.90;;;4.90;99.90;;;;;;6174986;23;20016;-86
2022/01/15 15:18:28;;;;;;;45.45;21.58;;;4.90;99.90;;;;;;6176606;23;20334;-87
2022/01/15 15:20:57;;;;;;;45.55;21.60;;;4.80;99.90;;;;;;6175049;23;20016;-87
2022/01/15 15:23:23;;;;;;;47.55;22.60;;;4.80;99.90;;;;;;6176784;23;20016;-86
2022/01/15 15:26:15;;;;;;;50.08;23.63;;;4.80;99.90;;;;;;6176179;23;20468;-86
2022/01/15 15:28:53;;;;;;;56.80;26.05;;;4.80;99.90;;;;;;6155587;23;20016;-84
2022/01/15 15:31:31;;;;;;;50.15;24.17;;;4.70;99.90;;;;;;6202204;23;20023;-83
2022/01/15 15:34:07;;;;;;;45.60;21.57;;;4.70;99.90;;;;;;6177203;23;20024;-84
2022/01/15 15:36:37;;;;;;;50.20;23.13;;;4.70;99.90;;;;;;6175795;23;20606;-84
2022/01/15 15:39:27;;;;;;;41.97;21.67;;;4.70;99.90;;;;;;6177246;23;20446;-85
2022/01/15 15:42:22;;;;;;;49.75;22.40;;;4.70;99.90;;;;;;6177914;23;20012;-87
2022/01/15 15:45:00;;;;;;;51.47;23.13;;;4.70;99.90;;;;;;6153614;23;20103;-87
2022/01/15 15:47:56;;;;;;;52.72;24.23;;;4.60;99.90;;;;;;6190691;23;20051;-86
2022/01/15 15:50:28;;;;;;;51.97;22.42;;;4.70;99.90;;;;;;6174419;23;20074;-87
2022/01/15 15:53:17;;;;;;;59.13;26.42;;;4.60;99.90;;;;;;6179645;23;20525;-87
2022/01/15 15:55:47;;;;;;;57.75;26.02;;;4.70;99.90;;;;;;6179422;23;20389;-87
2022/01/15 15:58:13;;;;;;;51.53;23.17;;;4.60;99.90;;;;;;6178586;23;20009;-87
2022/01/15 16:00:39;;;;;;;52.05;25.92;;;4.60;99.90;;;;;;6181274;23;20535;-85
2022/01/15 16:03:18;;;;;;;66.45;26.95;;;4.60;99.90;;;;;;6179899;23;20044;-87
2022/01/15 16:05:45;;;;;;;66.57;27.60;;;4.60;99.90;;;;;;6179720;23;20338;-85
2022/01/15 16:08:15;;;;;;;67.93;27.80;;;4.60;99.90;;;;;;6179910;23;20214;-87
2022/01/15 16:10:52;;;;;;;62.10;27.50;;;4.60;99.90;;;;;;6180005;23;20051;-85
2022/01/15 16:13:22;;;;;;;71.50;28.25;;;4.60;99.90;;;;;;6205734;23;20228;-87
2022/01/15 16:15:55;;;;;;;77.85;28.88;;;4.60;99.90;;;;;;6179752;23;20016;-87
2022/01/15 16:18:32;;;;;;;77.60;29.95;;;4.60;99.90;;;;;;6179586;23;20514;-86
2022/01/15 16:21:27;;;;;;;69.93;29.30;;;4.60;99.90;;;;;;6204439;23;20028;-87
2022/01/15 16:23:58;;;;;;;77.68;29.30;;;4.60;99.90;;;;;;6143261;23;20074;-86
2022/01/15 16:26:29;;;;;;;75.97;30.50;;;4.60;99.90;;;;;;6204252;23;20017;-87
2022/01/15 16:28:55;;;;;;;81.95;30.55;;;4.60;99.90;;;;;;6180239;23;20084;-87
2022/01/15 16:31:21;;;;;;;73.63;30.23;;;4.60;99.90;;;;;;6205472;23;20359;-86
2022/01/15 16:33:51;;;;;;;86.40;31.45;;;4.60;99.90;;;;;;6179147;23;20028;-87
2022/01/15 16:36:20;;;;;;;102.57;36.22;;;4.60;99.90;;;;;;6180439;23;20013;-87
2022/01/15 16:38:50;;;;;;;93.53;33.85;;;4.60;99.90;;;;;;6204805;23;20374;-87
2022/01/15 16:41:22;;;;;;;105.93;34.50;;;4.60;99.90;;;;;;6178690;23;20087;-86
2022/01/15 16:43:51;;;;;;;92.57;32.33;;;4.60;99.90;;;;;;6203274;23;20043;-86
2022/01/15 16:46:20;;;;;;;86.60;31.58;;;4.60;99.90;;;;;;6179110;23;20281;-86
2022/01/15 16:48:46;;;;;;;99.68;32.63;;;4.50;99.90;;;;;;6175911;23;20050;-87
2022/01/15 16:51:12;;;;;;;103.20;33.53;;;4.60;99.90;;;;;;6176828;23;20047;-87
2022/01/15 16:53:38;;;;;;;97.53;31.50;;;4.50;99.90;;;;;;6180337;23;20012;-86
2022/01/15 16:56:25;;;;;;;106.40;32.67;;;4.50;99.90;;;;;;6204637;23;20404;-87
2022/01/15 16:58:54;;;;;;;110.32;34.53;;;4.50;99.90;;;;;;6205313;23;20087;-86
2022/01/15 17:01:27;;;;;;;114.30;33.42;;;4.50;99.90;;;;;;6207300;23;20094;-86
2022/01/15 17:06:52;;;;;;;122.43;34.05;;;4.50;99.90;;;;;;6206518;23;20031;-86
2022/01/15 17:09:22;;;;;;;114.07;33.35;;;4.50;99.90;;;;;;6182982;23;20016;-87
2022/01/15 17:11:48;;;;;;;124.72;35.28;;;4.50;99.90;;;;;;6206501;23;20040;-87
2022/01/15 17:14:40;;;;;;;131.77;33.78;;;4.50;99.90;;;;;;6193231;23;20016;-87
2022/01/15 17:17:34;;;;;;;152.90;37.20;;;4.50;99.90;;;;;;6204651;23;20063;-87
2022/01/15 17:20:52;;;;;;;;;;;;;;;;;;;;;
2022/01/15 17:23:35;;;;;;;125.10;33.40;;;4.50;99.90;;;;;;6123007;23;20404;-86
2022/01/15 17:26:03;;;;;;;116.28;30.55;;;4.50;99.90;;;;;;6179606;23;20017;-87
2022/01/15 17:28:29;;;;;;;156.35;34.15;;;4.50;99.90;;;;;;6203769;23;20304;-87
2022/01/15 17:31:31;;;;;;;122.75;32.30;;;4.50;99.90;;;;;;6204285;23;20040;-88
2022/01/15 17:33:58;;;;;;;144.07;30.90;;;4.40;99.90;;;;;;6178539;23;20016;-87
2022/01/15 17:36:24;;;;;;;141.23;33.22;;;4.40;99.90;;;;;;6178869;23;20040;-87
2022/01/15 17:38:55;;;;;;;168.98;35.45;;;4.40;99.90;;;;;;6179708;23;20044;-87
2022/01/15 17:41:22;;;;;;;185.88;36.47;;;4.40;99.90;;;;;;6205118;23;20074;-86
2022/01/15 17:43:54;;;;;;;169.65;36.25;;;4.40;99.90;;;;;;6179876;23;20017;-87
2022/01/15 17:46:23;;;;;;;160.40;37.13;;;4.40;99.90;;;;;;6178391;23;20295;-86
2022/01/15 17:48:49;;;;;;;190.45;37.20;;;4.40;99.90;;;;;;6204651;23;20012;-86
2022/01/15 17:51:30;;;;;;;178.57;36.53;;;4.40;99.90;;;;;;6178482;23;20016;-87